AFR24 LFML-CYHZ
Flight info
| Callsign | AFR24 |
|---|---|
| Flight time | N/A |
| Altitude | 36000 |
| Route | LERGA DCT VALKU/N0466F370 DCT PECNO DCT LMG/N0466F360 DCT MANAK UT183 BAGAD DCT TEJOP/N0463F380 DCT ALUTA DCT TAKAS/M081F380 DCT ATSUR DCT SOMAX/M081F390 DCT 51N020W 52N030W 52N040W 50N050W DCT ELSIR/N0463F400 DCT SILRO DCT CAYLY CABOT5 |
| Aircraft | A339/H-SADE1E2E3GHIJ3J5M1P2RWXY/LB2D1 |
Departure
| Time | 2026-04-28 00:59 |
|---|---|
| Airport | Marseille Provence Airport (LFML) |
Arrival
| Time | N/A |
|---|---|
| Airport | Halifax / Stanfield International Airport (CYHZ) |
| Time | Latitude | Longitude | Altitude | Speed | Heading |
|---|---|---|---|---|---|
| 2026-04-28 00:31 | 43.44153 | 5.21956 | 41 ft | 0 kts | 44° |
| 2026-04-28 00:49 | 43.44149 | 5.21951 | 40 ft | 1 kts | 44° |
| 2026-04-28 00:49 | 43.44143 | 5.21942 | 39 ft | 3 kts | 44° |
| 2026-04-28 00:49 | 43.44126 | 5.21920 | 35 ft | 3 kts | 30° |
| 2026-04-28 00:50 | 43.44105 | 5.21906 | 39 ft | 3 kts | 0° |
| 2026-04-28 00:50 | 43.44082 | 5.21909 | 40 ft | 3 kts | 330° |
| 2026-04-28 00:50 | 43.44076 | 5.21913 | 36 ft | 1 kts | 321° |
| 2026-04-28 00:50 | 43.44076 | 5.21912 | 36 ft | 0 kts | 323° |
| 2026-04-28 00:52 | 43.44079 | 5.21909 | 39 ft | 2 kts | 323° |
| 2026-04-28 00:52 | 43.44100 | 5.21888 | 37 ft | 6 kts | 323° |
| 2026-04-28 00:52 | 43.44136 | 5.21851 | 39 ft | 0 kts | 323° |
| 2026-04-28 00:52 | 43.44136 | 5.21850 | 39 ft | 1 kts | 320° |
| 2026-04-28 00:53 | 43.44137 | 5.21839 | 39 ft | 2 kts | 292° |
| 2026-04-28 00:53 | 43.44134 | 5.21814 | 39 ft | 3 kts | 262° |
| 2026-04-28 00:53 | 43.44119 | 5.21799 | 38 ft | 3 kts | 219° |
| 2026-04-28 00:53 | 43.44101 | 5.21779 | 39 ft | 4 kts | 219° |
| 2026-04-28 00:54 | 43.44076 | 5.21752 | 39 ft | 5 kts | 218° |
| 2026-04-28 00:54 | 43.44045 | 5.21717 | 39 ft | 7 kts | 219° |
| 2026-04-28 00:54 | 43.44008 | 5.21672 | 39 ft | 8 kts | 222° |
| 2026-04-28 00:54 | 43.43966 | 5.21619 | 39 ft | 9 kts | 223° |
| 2026-04-28 00:55 | 43.43928 | 5.21552 | 39 ft | 9 kts | 244° |
| 2026-04-28 00:55 | 43.43943 | 5.21465 | 38 ft | 11 kts | 298° |
| 2026-04-28 00:55 | 43.43996 | 5.21377 | 36 ft | 13 kts | 314° |
| 2026-04-28 00:55 | 43.44064 | 5.21282 | 33 ft | 14 kts | 315° |
| 2026-04-28 00:56 | 43.44140 | 5.21175 | 30 ft | 17 kts | 313° |
| 2026-04-28 00:56 | 43.44227 | 5.21048 | 27 ft | 19 kts | 313° |
| 2026-04-28 00:56 | 43.44305 | 5.20888 | 27 ft | 21 kts | 298° |
| 2026-04-28 00:56 | 43.44398 | 5.20736 | 23 ft | 21 kts | 315° |
| 2026-04-28 00:57 | 43.44497 | 5.20594 | 27 ft | 21 kts | 314° |
| 2026-04-28 00:57 | 43.44599 | 5.20450 | 27 ft | 21 kts | 314° |
| 2026-04-28 00:57 | 43.44701 | 5.20305 | 28 ft | 21 kts | 314° |
| 2026-04-28 00:57 | 43.44803 | 5.20163 | 27 ft | 20 kts | 314° |
| 2026-04-28 00:58 | 43.44902 | 5.20021 | 27 ft | 21 kts | 314° |
| 2026-04-28 00:58 | 43.44976 | 5.19864 | 24 ft | 19 kts | 272° |
| 2026-04-28 00:58 | 43.44892 | 5.19792 | 27 ft | 13 kts | 159° |
| 2026-04-28 00:58 | 43.44804 | 5.19887 | 24 ft | 33 kts | 136° |
| 2026-04-28 00:59 | 43.44458 | 5.20382 | 27 ft | 110 kts | 134° |
| 2026-04-28 00:59 | 43.43770 | 5.21361 | 42 ft | 170 kts | 134° |
| 2026-04-28 00:59 | 43.42886 | 5.22592 | 477 ft | 185 kts | 134° |
| 2026-04-28 00:59 | 43.42150 | 5.24081 | 1091 ft | 193 kts | 109° |
| 2026-04-28 01:00 | 43.41953 | 5.25904 | 1804 ft | 198 kts | 88° |
| 2026-04-28 01:00 | 43.42296 | 5.27818 | 2219 ft | 219 kts | 64° |
| 2026-04-28 01:00 | 43.43290 | 5.29429 | 2856 ft | 223 kts | 34° |
| 2026-04-28 01:00 | 43.44758 | 5.30220 | 3406 ft | 232 kts | 1° |
| 2026-04-28 01:01 | 43.46374 | 5.29891 | 3959 ft | 243 kts | 343° |
| 2026-04-28 01:01 | 43.47969 | 5.28998 | 4299 ft | 260 kts | 333° |
| 2026-04-28 01:01 | 43.49616 | 5.27853 | 4808 ft | 268 kts | 333° |
| 2026-04-28 01:01 | 43.51313 | 5.26782 | 5472 ft | 269 kts | 337° |
| 2026-04-28 01:02 | 43.53057 | 5.25838 | 6143 ft | 271 kts | 340° |
| 2026-04-28 01:02 | 43.54843 | 5.24978 | 6778 ft | 273 kts | 341° |
| 2026-04-28 01:02 | 43.56660 | 5.24156 | 7390 ft | 276 kts | 342° |
| 2026-04-28 01:02 | 43.58501 | 5.23341 | 8003 ft | 280 kts | 342° |
| 2026-04-28 01:03 | 43.60367 | 5.22516 | 8620 ft | 283 kts | 341° |
| 2026-04-28 01:03 | 43.62230 | 5.21687 | 9235 ft | 287 kts | 341° |
| 2026-04-28 01:03 | 43.64139 | 5.20832 | 9868 ft | 291 kts | 341° |
| 2026-04-28 01:03 | 43.66076 | 5.19962 | 10368 ft | 298 kts | 341° |
| 2026-04-28 01:04 | 43.68117 | 5.19043 | 10532 ft | 318 kts | 341° |
| 2026-04-28 01:04 | 43.70279 | 5.18067 | 10709 ft | 335 kts | 341° |
| 2026-04-28 01:04 | 43.72528 | 5.17047 | 11132 ft | 343 kts | 340° |
| 2026-04-28 01:04 | 43.74795 | 5.15982 | 11686 ft | 346 kts | 340° |
| 2026-04-28 01:05 | 43.77075 | 5.14895 | 12247 ft | 349 kts | 339° |
| 2026-04-28 01:05 | 43.79384 | 5.13793 | 12813 ft | 352 kts | 339° |
| 2026-04-28 01:05 | 43.81681 | 5.12700 | 13363 ft | 356 kts | 339° |
| 2026-04-28 01:05 | 43.84034 | 5.11582 | 13722 ft | 358 kts | 339° |
| 2026-04-28 01:06 | 43.86132 | 5.09371 | 11357 ft | 417 kts | 310° |
| 2026-04-28 01:06 | 43.87889 | 5.06473 | 10738 ft | 397 kts | 304° |